createdAt,value
2023-05-09T00:00:48.062Z,3.90
2023-05-09T00:03:15.176Z,4.97
2023-05-09T00:05:42.130Z,4.47
2023-05-09T00:08:09.117Z,4.67
2023-05-09T00:10:36.072Z,5.10
2023-05-09T00:13:03.150Z,4.03
2023-05-09T00:15:30.460Z,4.13
2023-05-09T00:17:57.448Z,4.33
2023-05-09T00:20:24.434Z,4.00
2023-05-09T00:22:51.597Z,4.00
2023-05-09T00:25:18.479Z,5.07
2023-05-09T00:27:45.508Z,4.60
2023-05-09T00:30:12.664Z,3.73
2023-05-09T00:32:41.407Z,4.60
2023-05-09T00:35:10.015Z,3.93
2023-05-09T00:37:37.141Z,5.07
2023-05-09T00:40:06.570Z,3.47
2023-05-09T00:42:33.968Z,4.00
2023-05-09T00:45:01.160Z,4.23
2023-05-09T00:47:29.369Z,3.60
2023-05-09T00:49:58.132Z,3.87
2023-05-09T00:52:26.184Z,2.87
2023-05-09T00:54:56.510Z,3.43
2023-05-09T00:57:23.757Z,3.63
2023-05-09T00:59:50.814Z,3.70
2023-05-09T01:02:18.695Z,3.50
2023-05-09T01:04:46.529Z,4.07
2023-05-09T01:07:54.195Z,3.10
2023-05-09T01:11:15.014Z,2.53
2023-05-09T01:13:58.915Z,4.00
2023-05-09T01:16:52.435Z,4.10
2023-05-09T01:19:51.011Z,3.53
2023-05-09T01:22:20.700Z,3.50
2023-05-09T01:25:02.630Z,3.57
2023-05-09T01:27:56.596Z,4.10
2023-05-09T01:30:27.467Z,3.50
2023-05-09T01:32:59.957Z,3.73
2023-05-09T01:35:30.208Z,3.13
2023-05-09T01:37:58.612Z,3.13
2023-05-09T01:40:31.222Z,3.40
2023-05-09T01:43:09.818Z,3.53
2023-05-09T01:45:39.399Z,3.83
2023-05-09T01:48:08.742Z,2.57
2023-05-09T01:50:37.875Z,3.07
2023-05-09T01:53:06.928Z,3.43
2023-05-09T01:55:36.759Z,3.07
2023-05-09T01:58:05.808Z,3.20
2023-05-09T02:00:34.776Z,2.53
2023-05-09T02:03:04.086Z,3.10
2023-05-09T02:05:33.249Z,3.10
2023-05-09T02:08:01.166Z,3.07
2023-05-09T02:10:29.225Z,3.07
2023-05-09T02:12:57.548Z,3.63
2023-05-09T02:15:25.932Z,3.40
2023-05-09T02:17:53.053Z,3.17
2023-05-09T02:20:20.188Z,3.37
2023-05-09T02:22:47.904Z,2.70
2023-05-09T02:25:15.730Z,3.03
2023-05-09T02:27:45.842Z,3.10
2023-05-09T02:30:23.451Z,2.73
2023-05-09T02:32:55.498Z,2.70
2023-05-09T02:35:25.054Z,3.10
2023-05-09T02:37:52.798Z,3.07
2023-05-09T02:40:22.110Z,3.00
2023-05-09T02:42:49.001Z,2.50
2023-05-09T02:45:16.226Z,2.90
2023-05-09T02:47:43.291Z,2.57
2023-05-09T02:50:10.850Z,2.70
2023-05-09T02:52:38.109Z,3.30
2023-05-09T02:55:07.363Z,2.40
2023-05-09T02:57:34.346Z,2.90
2023-05-09T03:00:01.600Z,3.20
2023-05-09T03:02:28.519Z,2.60
2023-05-09T03:04:55.488Z,2.80
2023-05-09T03:07:22.360Z,3.60
2023-05-09T03:09:49.273Z,2.97
2023-05-09T03:12:16.165Z,3.13
2023-05-09T03:14:43.087Z,2.83
2023-05-09T03:17:09.932Z,3.20
2023-05-09T03:19:36.814Z,3.40
2023-05-09T03:22:03.841Z,2.53
2023-05-09T03:24:30.903Z,4.70
2023-05-09T03:26:57.763Z,3.13
2023-05-09T03:29:24.623Z,3.00
2023-05-09T03:31:51.975Z,3.23
2023-05-09T03:34:18.972Z,3.47
2023-05-09T03:36:45.931Z,3.03
2023-05-09T03:39:12.858Z,2.80
2023-05-09T03:41:39.770Z,3.37
2023-05-09T03:44:07.001Z,3.00
2023-05-09T03:46:33.960Z,3.50
2023-05-09T03:49:00.918Z,3.30
2023-05-09T03:51:27.877Z,2.93
2023-05-09T03:53:54.760Z,3.10
2023-05-09T03:56:22.345Z,2.97
2023-05-09T03:58:49.293Z,3.67
2023-05-09T04:01:16.482Z,3.23
2023-05-09T04:03:43.523Z,2.90
2023-05-09T04:06:10.545Z,2.87
2023-05-09T04:08:37.468Z,2.67
2023-05-09T04:11:04.410Z,3.40
2023-05-09T04:13:32.947Z,2.87
2023-05-09T04:15:59.895Z,3.37
2023-05-09T04:18:26.956Z,3.10
2023-05-09T04:20:53.823Z,3.33
2023-05-09T04:23:20.932Z,3.10
2023-05-09T04:25:47.836Z,3.70
2023-05-09T04:28:14.734Z,3.20
2023-05-09T04:30:41.619Z,3.47
2023-05-09T04:33:08.774Z,4.93
2023-05-09T04:35:35.677Z,3.70
2023-05-09T04:38:02.827Z,3.17
2023-05-09T04:40:29.890Z,2.80
2023-05-09T04:42:59.705Z,3.53
2023-05-09T04:45:26.671Z,2.90
2023-05-09T04:47:53.645Z,3.37
2023-05-09T04:50:20.766Z,3.70
2023-05-09T04:52:47.638Z,3.17
2023-05-09T04:55:14.666Z,3.20
2023-05-09T04:57:41.723Z,3.03
2023-05-09T05:00:11.505Z,2.93
2023-05-09T05:02:38.962Z,3.23
2023-05-09T05:05:12.171Z,3.50
2023-05-09T05:07:44.872Z,3.80
2023-05-09T05:10:11.745Z,3.17
2023-05-09T05:12:38.624Z,3.30
2023-05-09T05:15:06.121Z,3.00
2023-05-09T05:17:33.368Z,3.23
2023-05-09T05:20:00.364Z,3.03
2023-05-09T05:22:27.960Z,2.80
2023-05-09T05:24:54.907Z,2.80
2023-05-09T05:27:21.778Z,3.70
2023-05-09T05:29:48.672Z,3.60
2023-05-09T05:32:15.594Z,3.20
2023-05-09T05:34:42.540Z,3.20
2023-05-09T05:37:09.387Z,3.07
2023-05-09T05:39:36.295Z,3.13
2023-05-09T05:42:03.312Z,2.77
2023-05-09T05:44:30.233Z,3.67
2023-05-09T05:46:57.136Z,3.60
2023-05-09T05:49:25.053Z,3.60
2023-05-09T05:51:51.993Z,3.17
2023-05-09T05:54:18.921Z,3.10
2023-05-09T05:56:45.836Z,2.80
2023-05-09T05:59:13.315Z,3.20
2023-05-09T06:01:40.737Z,2.63
2023-05-09T06:04:07.807Z,2.70
2023-05-09T06:06:34.909Z,2.87
2023-05-09T06:09:01.874Z,2.90
2023-05-09T06:11:28.887Z,3.23
2023-05-09T06:13:55.766Z,2.90
2023-05-09T06:16:22.963Z,3.33
2023-05-09T06:18:50.079Z,3.07
2023-05-09T06:21:17.140Z,3.00
2023-05-09T06:23:57.563Z,2.70
2023-05-09T06:26:30.894Z,3.27
2023-05-09T06:28:57.812Z,2.37
2023-05-09T06:31:25.786Z,2.70
2023-05-09T06:33:53.142Z,2.90
2023-05-09T06:36:20.287Z,2.93
2023-05-09T06:38:47.253Z,3.70
2023-05-09T06:41:14.155Z,2.50
2023-05-09T06:43:41.036Z,3.23
2023-05-09T06:46:07.963Z,3.07
2023-05-09T06:48:34.959Z,3.20
2023-05-09T06:51:01.875Z,2.97
2023-05-09T06:53:28.746Z,2.30
2023-05-09T06:55:55.705Z,2.60
2023-05-09T06:58:23.261Z,3.10
2023-05-09T07:00:51.307Z,2.73
2023-05-09T07:03:18.303Z,2.87
2023-05-09T07:05:45.213Z,3.20
2023-05-09T07:08:12.052Z,2.73
2023-05-09T07:10:38.997Z,3.40
2023-05-09T07:13:06.289Z,2.77
2023-05-09T07:15:41.170Z,3.10
2023-05-09T07:18:09.447Z,2.20
2023-05-09T07:20:36.617Z,2.80
2023-05-09T07:23:04.387Z,2.50
2023-05-09T07:25:31.547Z,2.47
2023-05-09T07:27:58.880Z,2.77
2023-05-09T07:30:25.923Z,3.10
2023-05-09T07:32:53.192Z,2.80
2023-05-09T07:35:20.467Z,2.77
2023-05-09T07:37:47.514Z,2.30
2023-05-09T07:40:15.091Z,2.87
2023-05-09T07:42:49.392Z,2.43
2023-05-09T07:45:17.531Z,1.80
2023-05-09T07:47:46.087Z,2.80
2023-05-09T07:50:12.976Z,2.83
2023-05-09T07:52:39.870Z,2.70
2023-05-09T07:55:07.445Z,3.13
2023-05-09T07:57:34.414Z,2.20
2023-05-09T08:00:01.298Z,3.00
2023-05-09T08:02:28.294Z,2.80
2023-05-09T08:04:55.263Z,2.63
2023-05-09T08:07:22.180Z,2.70
2023-05-09T08:09:49.148Z,2.30
2023-05-09T08:12:16.055Z,3.20
2023-05-09T08:14:43.095Z,2.60
2023-05-09T08:17:10.193Z,2.23
2023-05-09T08:19:38.012Z,2.40
2023-05-09T08:22:04.918Z,2.73
2023-05-09T08:24:32.670Z,2.60
2023-05-09T08:26:59.940Z,2.20
2023-05-09T08:29:26.900Z,2.83
2023-05-09T08:31:53.877Z,2.43
2023-05-09T08:34:21.196Z,2.30
2023-05-09T08:36:48.313Z,2.60
2023-05-09T08:39:15.182Z,1.80
2023-05-09T08:41:43.233Z,2.37
2023-05-09T08:44:10.939Z,2.43
2023-05-09T08:46:43.734Z,2.10
2023-05-09T08:49:11.529Z,2.37
2023-05-09T08:51:38.942Z,2.30
2023-05-09T08:54:06.160Z,2.00
2023-05-09T08:56:34.917Z,2.20
2023-05-09T08:59:01.872Z,2.83
2023-05-09T09:01:29.545Z,2.50
2023-05-09T09:03:57.077Z,2.63
2023-05-09T09:06:25.739Z,1.93
2023-05-09T09:08:56.273Z,2.07
2023-05-09T09:11:23.637Z,2.37
2023-05-09T09:13:53.001Z,1.97
2023-05-09T09:16:25.373Z,1.63
2023-05-09T09:18:56.230Z,2.20
2023-05-09T09:21:24.344Z,2.13
2023-05-09T09:24:04.872Z,2.50
2023-05-09T09:26:59.416Z,2.40
2023-05-09T09:29:42.106Z,2.40
2023-05-09T09:32:17.421Z,3.20
2023-05-09T09:34:59.188Z,2.97
2023-05-09T09:37:46.897Z,2.60
2023-05-09T09:40:26.806Z,2.53
2023-05-09T09:43:14.029Z,2.27
2023-05-09T09:46:04.752Z,2.20
2023-05-09T09:48:49.580Z,2.33
2023-05-09T09:51:37.219Z,2.07
2023-05-09T09:54:10.222Z,2.43
2023-05-09T09:57:17.462Z,2.17
2023-05-09T09:59:59.740Z,2.77
2023-05-09T10:05:46.266Z,2.53
2023-05-09T10:08:23.741Z,2.50
2023-05-09T10:11:10.269Z,2.10
2023-05-09T10:13:44.923Z,2.17
2023-05-09T10:16:42.700Z,2.80
2023-05-09T10:19:14.905Z,2.40
2023-05-09T10:22:02.790Z,2.20
2023-05-09T10:25:17.869Z,1.90
2023-05-09T10:28:04.245Z,2.47
2023-05-09T10:31:36.322Z,3.00
2023-05-09T10:34:14.246Z,2.60
2023-05-09T10:36:53.832Z,2.60
2023-05-09T10:39:35.194Z,3.03
2023-05-09T10:42:55.975Z,2.00
2023-05-09T10:45:43.946Z,2.70
2023-05-09T10:48:25.841Z,2.80
2023-05-09T10:51:23.404Z,2.40
2023-05-09T10:54:31.155Z,2.87
2023-05-09T10:57:17.059Z,1.97
2023-05-09T11:00:13.580Z,2.77
2023-05-09T11:03:29.295Z,2.10
2023-05-09T11:06:52.287Z,2.70
2023-05-09T11:09:54.301Z,2.40
2023-05-09T11:12:36.400Z,3.13
2023-05-09T11:15:30.305Z,2.77
2023-05-09T11:18:19.088Z,2.70
2023-05-09T11:20:54.666Z,2.50
2023-05-09T11:23:34.130Z,2.67
2023-05-09T11:26:21.301Z,3.40
2023-05-09T11:33:42.799Z,2.90
2023-05-09T11:39:24.861Z,2.77
2023-05-09T11:42:23.295Z,2.90
2023-05-09T11:45:33.706Z,2.40
2023-05-09T11:48:12.397Z,2.33
2023-05-09T11:50:47.127Z,3.50
2023-05-09T11:53:28.670Z,2.90
2023-05-09T11:59:11.985Z,2.80
2023-05-09T12:02:05.590Z,2.60
2023-05-09T12:04:59.651Z,2.40
2023-05-09T12:07:50.165Z,2.60
2023-05-09T12:10:31.129Z,2.80
2023-05-09T12:19:27.200Z,2.47
2023-05-09T12:22:12.418Z,2.63
2023-05-09T12:25:01.443Z,2.43
2023-05-09T12:27:51.645Z,3.00
2023-05-09T12:30:40.999Z,3.17
2023-05-09T12:33:15.171Z,3.00
2023-05-09T12:37:06.888Z,2.70
2023-05-09T12:39:59.906Z,2.67
2023-05-09T12:42:34.569Z,2.23
2023-05-09T12:45:37.210Z,2.40
2023-05-09T12:48:23.915Z,2.50
2023-05-09T12:50:55.878Z,2.70
2023-05-09T12:56:51.102Z,2.23
2023-05-09T12:59:40.368Z,3.00
2023-05-09T13:02:32.076Z,3.00
2023-05-09T13:05:39.143Z,2.83
2023-05-09T13:08:22.984Z,2.97
2023-05-09T13:10:53.708Z,2.37
2023-05-09T13:13:54.874Z,2.67
2023-05-09T13:16:57.000Z,2.70
2023-05-09T13:19:58.072Z,2.50
2023-05-09T13:22:44.177Z,2.70
2023-05-09T13:25:32.448Z,2.30
2023-05-09T13:28:00.185Z,2.20
2023-05-09T13:30:45.116Z,2.57
2023-05-09T13:33:38.835Z,2.23
2023-05-09T13:36:16.938Z,2.80
2023-05-09T13:42:09.233Z,2.40
2023-05-09T13:45:04.762Z,2.10
2023-05-09T13:48:04.602Z,2.57
2023-05-09T13:51:21.907Z,2.30
2023-05-09T13:53:57.885Z,2.47
2023-05-09T13:56:30.851Z,2.73
2023-05-09T13:59:33.513Z,2.53
2023-05-09T14:02:53.939Z,2.10
2023-05-09T14:05:53.072Z,3.23
2023-05-09T14:08:26.688Z,2.37
2023-05-09T14:11:18.155Z,2.80
2023-05-09T14:13:57.136Z,2.50
2023-05-09T14:16:28.569Z,2.70
2023-05-09T14:19:23.034Z,2.33
2023-05-09T14:22:47.461Z,2.27
2023-05-09T14:25:42.005Z,2.33
2023-05-09T14:28:24.214Z,2.30
2023-05-09T14:31:19.555Z,2.00
2023-05-09T14:34:17.392Z,2.20
2023-05-09T14:36:51.613Z,2.47
2023-05-09T14:39:43.634Z,2.60
2023-05-09T14:42:34.470Z,2.20
2023-05-09T14:45:35.883Z,2.43
2023-05-09T14:48:17.329Z,3.07
2023-05-09T14:51:20.064Z,3.30
2023-05-09T14:57:31.060Z,2.33
2023-05-09T15:00:30.796Z,3.00
2023-05-09T15:03:05.263Z,2.30
2023-05-09T15:05:43.100Z,2.27
2023-05-09T15:08:44.680Z,2.60
2023-05-09T15:11:14.725Z,2.33
2023-05-09T15:13:47.051Z,2.33
2023-05-09T15:16:23.277Z,2.37
2023-05-09T15:19:05.613Z,2.80
2023-05-09T15:21:39.686Z,2.37
2023-05-09T15:24:10.600Z,2.30
2023-05-09T15:26:46.684Z,1.97
2023-05-09T15:29:25.927Z,2.47
2023-05-09T15:32:10.079Z,2.17
2023-05-09T15:34:44.861Z,2.80
2023-05-09T15:37:45.064Z,2.60
2023-05-09T15:40:19.452Z,2.40
2023-05-09T15:42:56.175Z,1.67
2023-05-09T15:45:29.694Z,2.00
2023-05-09T15:48:04.742Z,2.30
2023-05-09T15:51:15.949Z,2.53
2023-05-09T15:54:02.511Z,2.10
2023-05-09T15:56:41.509Z,2.70
2023-05-09T15:59:28.712Z,2.10
2023-05-09T16:02:12.975Z,2.17
2023-05-09T16:05:06.878Z,2.10
2023-05-09T16:07:40.774Z,2.13
2023-05-09T16:10:17.825Z,2.80
2023-05-09T16:12:55.826Z,2.60
2023-05-09T16:15:29.372Z,2.47
2023-05-09T16:18:02.664Z,2.53
2023-05-09T16:20:32.916Z,3.03
2023-05-09T16:23:18.477Z,3.03
2023-05-09T16:25:53.503Z,2.47
2023-05-09T16:28:44.024Z,2.43
2023-05-09T16:31:39.672Z,2.30
2023-05-09T16:34:19.431Z,2.40
2023-05-09T16:36:58.677Z,2.73
2023-05-09T16:39:42.195Z,2.60
2023-05-09T16:42:29.898Z,2.50
2023-05-09T16:45:09.032Z,2.90
2023-05-09T16:47:50.089Z,3.13
2023-05-09T16:50:30.189Z,2.80
2023-05-09T16:53:06.256Z,3.00
2023-05-09T16:55:42.354Z,3.00
2023-05-09T16:58:29.779Z,2.53
2023-05-09T17:01:08.864Z,2.73
2023-05-09T17:04:02.568Z,2.70
2023-05-09T17:09:39.469Z,3.50
2023-05-09T17:12:12.127Z,3.47
2023-05-09T17:14:57.308Z,2.90
2023-05-09T17:17:43.156Z,2.93
2023-05-09T17:20:34.090Z,3.00
2023-05-09T17:23:26.684Z,2.90
2023-05-09T17:26:23.136Z,3.40
2023-05-09T17:29:35.450Z,2.60
2023-05-09T17:35:03.739Z,3.20
2023-05-09T17:37:53.103Z,2.60
2023-05-09T17:40:43.177Z,3.07
2023-05-09T17:43:22.727Z,2.77
2023-05-09T17:46:08.292Z,3.00
2023-05-09T17:48:44.702Z,2.90
2023-05-09T17:51:15.433Z,3.20
2023-05-09T17:53:51.459Z,2.93
2023-05-09T17:56:23.320Z,2.43
2023-05-09T17:59:16.552Z,2.90
2023-05-09T18:02:05.522Z,2.80
2023-05-09T18:04:52.675Z,2.50
2023-05-09T18:07:36.195Z,3.00
2023-05-09T18:10:35.514Z,2.80
2023-05-09T18:13:04.151Z,3.23
2023-05-09T18:15:42.068Z,2.77
2023-05-09T18:18:33.080Z,3.40
2023-05-09T18:21:00.035Z,2.90
2023-05-09T18:23:27.284Z,3.30
2023-05-09T18:25:54.866Z,4.10
2023-05-09T18:28:25.173Z,3.67
2023-05-09T18:30:54.613Z,3.43
2023-05-09T18:33:27.149Z,4.57
2023-05-09T18:35:55.272Z,3.00
2023-05-09T18:38:22.770Z,3.30
2023-05-09T18:40:51.954Z,2.93
2023-05-09T18:43:21.477Z,3.50
2023-05-09T18:45:48.994Z,2.67
2023-05-09T18:48:16.983Z,3.20
2023-05-09T18:50:43.988Z,3.53
2023-05-09T18:53:10.917Z,2.53
2023-05-09T18:55:37.852Z,3.17
2023-05-09T18:58:04.893Z,2.90
2023-05-09T19:00:32.061Z,2.77
2023-05-09T19:02:59.094Z,2.83
2023-05-09T19:05:27.346Z,3.00
2023-05-09T19:07:54.335Z,2.40
2023-05-09T19:10:21.257Z,2.60
2023-05-09T19:12:49.184Z,3.27
2023-05-09T19:15:16.320Z,2.77
2023-05-09T19:17:43.541Z,2.63
2023-05-09T19:20:11.626Z,3.17
2023-05-09T19:22:41.117Z,2.87
2023-05-09T19:25:08.732Z,3.20
2023-05-09T19:27:35.770Z,3.47
2023-05-09T19:30:05.205Z,3.23
2023-05-09T19:32:32.099Z,2.97
2023-05-09T19:34:58.969Z,3.17
2023-05-09T19:37:25.881Z,3.00
2023-05-09T19:39:52.860Z,2.80
2023-05-09T19:42:20.001Z,2.40
2023-05-09T19:44:47.333Z,3.60
2023-05-09T19:47:14.201Z,3.20
2023-05-09T19:49:42.838Z,3.90
2023-05-09T19:52:09.761Z,2.93
2023-05-09T19:54:36.704Z,3.20
2023-05-09T19:57:06.376Z,2.87
2023-05-09T19:59:33.385Z,2.97
2023-05-09T20:02:00.464Z,2.80
2023-05-09T20:04:27.804Z,2.83
2023-05-09T20:06:54.646Z,2.90
2023-05-09T20:09:21.631Z,2.77
2023-05-09T20:11:48.656Z,3.10
2023-05-09T20:14:15.544Z,3.83
2023-05-09T20:16:43.751Z,2.90
2023-05-09T20:19:14.152Z,3.00
2023-05-09T20:21:41.446Z,2.90
2023-05-09T20:24:08.742Z,3.50
2023-05-09T20:26:35.740Z,3.13
2023-05-09T20:29:02.618Z,2.97
2023-05-09T20:31:30.309Z,3.43
2023-05-09T20:33:58.108Z,3.10
2023-05-09T20:36:26.605Z,3.37
2023-05-09T20:38:53.493Z,2.53
2023-05-09T20:41:20.422Z,3.70
2023-05-09T20:43:47.340Z,3.87
2023-05-09T20:46:14.867Z,3.33
2023-05-09T20:48:41.785Z,4.00
2023-05-09T20:51:08.664Z,3.20
2023-05-09T20:53:37.563Z,4.00
2023-05-09T20:56:04.973Z,3.70
2023-05-09T20:58:33.598Z,3.40
2023-05-09T21:01:00.912Z,3.77
2023-05-09T21:03:27.908Z,3.40
2023-05-09T21:05:54.833Z,3.77
2023-05-09T21:08:23.226Z,3.13
2023-05-09T21:10:54.252Z,3.70
2023-05-09T21:13:21.420Z,4.17
2023-05-09T21:15:51.445Z,3.77
2023-05-09T21:18:19.955Z,3.60
2023-05-09T21:20:46.817Z,3.40
2023-05-09T21:23:14.343Z,3.63
2023-05-09T21:25:41.759Z,3.63
2023-05-09T21:28:08.779Z,3.57
2023-05-09T21:30:35.647Z,3.63
2023-05-09T21:33:03.879Z,4.10
2023-05-09T21:35:30.943Z,3.90
2023-05-09T21:37:57.923Z,3.93
2023-05-09T21:40:24.846Z,4.03
2023-05-09T21:42:51.719Z,4.70
2023-05-09T21:45:19.060Z,3.60
2023-05-09T21:47:46.103Z,4.40
2023-05-09T21:50:13.925Z,4.00
2023-05-09T21:52:41.073Z,3.90
2023-05-09T21:55:08.346Z,3.70
2023-05-09T21:57:35.190Z,3.73
2023-05-09T22:00:04.940Z,3.93
2023-05-09T22:02:32.529Z,3.40
2023-05-09T22:04:59.763Z,3.70
2023-05-09T22:07:26.749Z,4.03
2023-05-09T22:09:54.168Z,4.23
2023-05-09T22:12:21.414Z,4.20
2023-05-09T22:14:55.862Z,4.40
2023-05-09T22:17:24.576Z,4.07
2023-05-09T22:19:52.029Z,4.53
2023-05-09T22:22:19.095Z,4.63
2023-05-09T22:24:45.998Z,4.57
2023-05-09T22:27:13.211Z,4.90
2023-05-09T22:29:40.174Z,4.50
2023-05-09T22:32:08.506Z,4.80
2023-05-09T22:34:35.999Z,3.83
2023-05-09T22:37:02.970Z,5.00
2023-05-09T22:39:30.831Z,4.63
2023-05-09T22:41:57.756Z,4.43
2023-05-09T22:44:24.804Z,4.83
2023-05-09T22:46:51.679Z,5.50
2023-05-09T22:49:18.698Z,4.90
2023-05-09T22:51:45.644Z,4.67
2023-05-09T22:54:12.616Z,4.70
2023-05-09T22:56:39.562Z,4.67
2023-05-09T22:59:06.508Z,5.20
2023-05-09T23:01:33.426Z,4.87
2023-05-09T23:04:00.759Z,4.93
2023-05-09T23:06:27.689Z,4.97
2023-05-09T23:08:54.789Z,4.10
2023-05-09T23:11:23.769Z,4.30
2023-05-09T23:13:51.002Z,5.50
2023-05-09T23:16:18.278Z,4.80
2023-05-09T23:18:45.339Z,5.00
2023-05-09T23:21:12.529Z,5.53
2023-05-09T23:23:39.662Z,5.60
2023-05-09T23:26:06.750Z,5.17
2023-05-09T23:28:33.769Z,4.70
2023-05-09T23:31:00.916Z,5.50
2023-05-09T23:33:27.923Z,5.20
2023-05-09T23:35:55.304Z,5.30
2023-05-09T23:38:22.558Z,5.20
2023-05-09T23:40:49.470Z,4.83
2023-05-09T23:43:16.629Z,4.60
2023-05-09T23:45:43.628Z,4.23
2023-05-09T23:48:11.213Z,5.50
2023-05-09T23:50:38.109Z,5.50
2023-05-09T23:53:05.071Z,5.73
2023-05-09T23:55:32.270Z,6.13
2023-05-09T23:58:00.588Z,5.43
